createdAt,value
2023-04-27T03:58:20.850Z,20.27
2023-04-27T03:59:20.818Z,20.19
2023-04-27T04:00:20.783Z,20.26
2023-04-27T04:01:20.793Z,20.25
2023-04-27T04:02:20.856Z,20.22
2023-04-27T04:03:20.970Z,20.26
2023-04-27T04:04:20.924Z,20.23
2023-04-27T04:05:20.777Z,20.23
2023-04-27T04:06:20.784Z,20.22
2023-04-27T04:07:20.728Z,20.27
2023-04-27T04:08:20.746Z,20.34
2023-04-27T04:09:22.714Z,20.25
2023-04-27T04:10:20.731Z,20.38
2023-04-27T04:11:20.704Z,20.38
2023-04-27T04:12:20.703Z,20.37
2023-04-27T04:13:20.714Z,20.42
2023-04-27T04:14:20.712Z,20.40
2023-04-27T04:15:20.692Z,20.35
2023-04-27T04:16:20.734Z,20.44
2023-04-27T04:17:21.104Z,20.44
2023-04-27T04:18:20.729Z,20.41
2023-04-27T04:19:22.114Z,20.48
2023-04-27T04:20:20.681Z,20.48
2023-04-27T04:21:20.669Z,20.53
2023-04-27T04:22:20.677Z,20.49
2023-04-27T04:23:20.680Z,20.58
2023-04-27T04:24:20.654Z,20.60
2023-04-27T04:25:20.683Z,20.57
2023-04-27T04:26:20.661Z,20.57
2023-04-27T04:27:20.658Z,20.56
2023-04-27T04:28:20.642Z,20.60
2023-04-27T04:29:20.616Z,20.60
2023-04-27T04:30:20.674Z,20.66
2023-04-27T04:31:20.686Z,20.61
2023-04-27T04:32:20.630Z,20.68
2023-04-27T04:33:20.615Z,20.68
2023-04-27T04:34:20.672Z,20.67
2023-04-27T04:35:20.657Z,20.75
2023-04-27T04:36:20.600Z,20.71
2023-04-27T04:37:20.637Z,20.71
2023-04-27T04:38:20.588Z,20.75
2023-04-27T04:39:20.583Z,20.71
2023-04-27T04:40:20.575Z,20.71
2023-04-27T04:41:20.592Z,20.74
2023-04-27T04:42:20.567Z,20.83
2023-04-27T04:43:20.582Z,20.82
2023-04-27T04:44:20.580Z,20.86
2023-04-27T04:45:20.579Z,20.79
2023-04-27T04:46:20.620Z,20.86
2023-04-27T04:47:20.595Z,20.83
2023-04-27T04:48:20.552Z,20.82
2023-04-27T04:49:20.552Z,20.79
2023-04-27T04:50:20.564Z,20.82
2023-04-27T04:51:20.527Z,20.82
2023-04-27T04:52:20.553Z,20.91
2023-04-27T04:53:20.538Z,20.94
2023-04-27T04:54:20.576Z,20.91
2023-04-27T04:55:20.519Z,20.90
2023-04-27T04:56:20.514Z,20.91
2023-04-27T04:57:20.546Z,20.94
2023-04-27T04:58:20.495Z,20.98
2023-04-27T04:59:20.501Z,21.01
2023-04-27T05:00:20.515Z,20.93
2023-04-27T05:01:20.544Z,21.01
2023-04-27T05:02:20.574Z,20.98
2023-04-27T05:03:20.659Z,20.97
2023-04-27T05:04:20.865Z,20.94
2023-04-27T05:05:20.489Z,20.93
2023-04-27T05:06:20.482Z,21.01
2023-04-27T05:07:24.658Z,21.06
2023-04-27T05:08:20.521Z,21.04
2023-04-27T05:09:20.476Z,21.00
2023-04-27T05:10:20.449Z,21.03
2023-04-27T05:11:20.489Z,20.97
2023-04-27T05:12:20.456Z,21.09
2023-04-27T05:13:20.457Z,21.06
2023-04-27T05:14:20.438Z,21.04
2023-04-27T05:15:20.447Z,21.09
2023-04-27T05:16:20.516Z,21.09
2023-04-27T05:17:20.459Z,21.06
2023-04-27T05:18:20.459Z,21.09
2023-04-27T05:19:20.432Z,21.09
2023-04-27T05:20:20.818Z,21.09
2023-04-27T05:21:20.440Z,21.00
2023-04-27T05:22:20.411Z,21.01
2023-04-27T05:23:20.428Z,21.04
2023-04-27T05:24:20.402Z,21.11
2023-04-27T05:25:20.386Z,21.06
2023-04-27T05:26:20.403Z,21.15
2023-04-27T05:27:20.375Z,21.16
2023-04-27T05:28:20.379Z,21.18
2023-04-27T05:29:20.383Z,21.21
2023-04-27T05:30:20.391Z,21.21
2023-04-27T05:31:20.428Z,21.21
2023-04-27T05:32:20.384Z,21.19
2023-04-27T05:33:20.360Z,21.19
2023-04-27T05:34:20.376Z,21.22
2023-04-27T05:35:20.348Z,21.23
2023-04-27T05:36:20.336Z,21.28
2023-04-27T05:37:20.367Z,21.21
2023-04-27T05:38:20.380Z,21.25
2023-04-27T05:39:20.383Z,21.33
2023-04-27T05:40:20.376Z,21.41
2023-04-27T05:41:20.376Z,21.28
2023-04-27T05:42:20.376Z,21.37
2023-04-27T05:43:20.340Z,21.37
2023-04-27T05:44:20.350Z,21.36
2023-04-27T05:45:20.354Z,21.36
2023-04-27T05:46:20.419Z,21.37
2023-04-27T05:47:20.310Z,21.51
2023-04-27T05:48:20.355Z,21.45
2023-04-27T05:49:20.293Z,21.48
2023-04-27T05:50:20.338Z,21.53
2023-04-27T05:51:20.295Z,21.58
2023-04-27T05:52:20.321Z,21.55
2023-04-27T05:53:20.290Z,21.62
2023-04-27T05:54:20.314Z,21.66
2023-04-27T05:55:20.332Z,21.73
2023-04-27T05:56:20.319Z,21.78
2023-04-27T05:57:20.413Z,21.80
2023-04-27T05:58:20.316Z,21.80
2023-04-27T05:59:20.289Z,21.82
2023-04-27T06:00:20.302Z,21.93
2023-04-27T06:01:20.268Z,21.99
2023-04-27T06:02:20.491Z,21.96
2023-04-27T06:03:20.537Z,22.08
2023-04-27T06:04:20.597Z,22.07
2023-04-27T06:05:20.261Z,22.11
2023-04-27T06:06:20.244Z,22.16
2023-04-27T06:07:20.270Z,22.27
2023-04-27T06:08:20.247Z,22.26
2023-04-27T06:09:20.223Z,22.26
2023-04-27T06:10:20.229Z,22.23
2023-04-27T06:11:20.208Z,22.30
2023-04-27T06:12:20.213Z,22.36
2023-04-27T06:13:20.276Z,22.34
2023-04-27T06:14:20.216Z,22.41
2023-04-27T06:15:20.206Z,22.42
2023-04-27T06:16:20.289Z,22.46
2023-04-27T06:17:20.219Z,22.45
2023-04-27T06:18:20.238Z,22.48
2023-04-27T06:19:20.253Z,22.46
2023-04-27T06:20:20.211Z,22.63
2023-04-27T06:21:20.198Z,22.57
2023-04-27T06:22:20.199Z,22.60
2023-04-27T06:23:20.699Z,22.55
2023-04-27T06:24:20.196Z,22.67
2023-04-27T06:25:20.248Z,22.71
2023-04-27T06:28:52.881Z,22.81
2023-04-27T06:29:52.737Z,22.81
2023-04-27T06:30:52.761Z,22.86
2023-04-27T06:31:52.812Z,22.89
2023-04-27T06:32:52.806Z,22.99
2023-04-27T06:33:52.755Z,22.99
2023-04-27T06:34:52.741Z,23.04
2023-04-27T06:35:52.774Z,23.04
2023-04-27T06:36:52.729Z,23.15
2023-04-27T06:37:52.827Z,23.04
2023-04-27T06:38:52.730Z,23.10
2023-04-27T06:39:52.717Z,23.10
2023-04-27T06:40:52.866Z,23.22
2023-04-27T06:41:52.760Z,23.25
2023-04-27T06:42:52.728Z,23.26
2023-04-27T06:43:52.794Z,23.26
2023-04-27T06:44:52.788Z,23.28
2023-04-27T06:45:52.770Z,23.40
2023-04-27T06:46:52.723Z,23.41
2023-04-27T06:47:52.716Z,23.40
2023-04-27T06:48:52.722Z,23.34
2023-04-27T06:49:52.727Z,23.44
2023-04-27T06:50:52.774Z,23.48
2023-04-27T06:51:52.694Z,23.48
2023-04-27T06:52:52.712Z,23.52
2023-04-27T06:53:54.871Z,23.59
2023-04-27T06:54:52.688Z,23.60
2023-04-27T06:55:52.762Z,23.63
2023-04-27T06:56:52.676Z,23.62
2023-04-27T06:57:52.675Z,23.72
2023-04-27T06:58:52.740Z,23.78
2023-04-27T07:00:52.717Z,23.84
2023-04-27T07:01:52.775Z,23.85
2023-04-27T07:02:52.854Z,23.90
2023-04-27T07:03:52.909Z,23.94
2023-04-27T07:04:52.830Z,23.94
2023-04-27T07:05:53.092Z,23.96
2023-04-27T07:06:52.715Z,23.96
2023-04-27T07:07:52.685Z,24.02
2023-04-27T07:08:52.715Z,24.11
2023-04-27T07:09:52.694Z,24.07
2023-04-27T07:10:52.665Z,24.09
2023-04-27T07:11:52.712Z,24.15
2023-04-27T07:12:52.766Z,24.19
2023-04-27T07:13:52.682Z,24.26
2023-04-27T07:14:52.676Z,24.26
2023-04-27T07:15:52.670Z,24.24
2023-04-27T07:16:53.390Z,24.22
2023-04-27T07:17:52.727Z,24.26
2023-04-27T07:18:52.723Z,24.30
2023-04-27T07:19:52.786Z,24.34
2023-04-27T07:20:52.693Z,24.37
2023-04-27T07:21:52.671Z,24.40
2023-04-27T07:22:52.672Z,24.37
2023-04-27T07:23:54.173Z,24.40
2023-04-27T07:24:52.624Z,24.55
2023-04-27T07:25:52.665Z,24.54
2023-04-27T07:26:52.689Z,24.44
2023-04-27T07:27:53.036Z,24.45
2023-04-27T07:28:52.653Z,24.56
2023-04-27T07:29:52.649Z,24.64
2023-04-27T07:30:52.639Z,24.58
2023-04-27T07:31:52.966Z,24.67
2023-04-27T07:32:52.752Z,24.69
2023-04-27T07:33:52.688Z,24.71
2023-04-27T07:34:54.332Z,24.69
2023-04-27T07:35:52.911Z,24.78
2023-04-27T07:36:52.620Z,24.69
2023-04-27T07:37:52.693Z,24.77
2023-04-27T07:38:52.633Z,24.82
2023-04-27T07:39:52.772Z,24.85
2023-04-27T07:40:53.641Z,24.89
2023-04-27T07:41:52.707Z,24.86
2023-04-27T07:42:52.778Z,24.83
2023-04-27T07:43:52.631Z,24.93
2023-04-27T07:44:52.758Z,24.94
2023-04-27T07:45:53.462Z,24.94
2023-04-27T07:46:52.614Z,24.96
2023-04-27T07:47:52.676Z,25.04
2023-04-27T07:48:52.627Z,24.97
2023-04-27T07:49:52.627Z,25.07
2023-04-27T07:50:52.758Z,25.01
2023-04-27T07:51:52.663Z,25.12
2023-04-27T07:52:52.622Z,25.08
2023-04-27T07:53:52.625Z,25.07
2023-04-27T07:54:52.689Z,25.11
2023-04-27T07:55:52.647Z,25.11
2023-04-27T07:56:52.610Z,25.15
2023-04-27T07:57:52.637Z,25.15
2023-04-27T07:58:52.668Z,25.17
2023-04-27T07:59:52.696Z,25.20
2023-04-27T08:00:52.961Z,25.20
2023-04-27T08:01:54.389Z,25.24
2023-04-27T08:02:52.908Z,25.23
2023-04-27T08:03:52.856Z,25.29
2023-04-27T08:04:53.107Z,25.23
2023-04-27T08:05:53.001Z,25.33
2023-04-27T08:06:53.130Z,25.26
2023-04-27T08:07:53.155Z,25.27
2023-04-27T08:08:52.613Z,25.30
2023-04-27T08:09:52.606Z,25.32
2023-04-27T08:10:52.601Z,25.34
2023-04-27T08:11:52.609Z,25.32
2023-04-27T08:12:52.587Z,25.38
2023-04-27T08:13:52.634Z,25.38
2023-04-27T08:14:52.602Z,25.44
2023-04-27T08:15:52.599Z,25.39
2023-04-27T08:16:52.597Z,25.37
2023-04-27T08:17:52.814Z,25.42
2023-04-27T08:18:52.627Z,25.33
2023-04-27T08:19:52.631Z,25.42
2023-04-27T08:20:52.575Z,25.44
2023-04-27T08:21:52.592Z,25.39
2023-04-27T08:22:52.614Z,25.37
2023-04-27T08:23:52.586Z,25.33
2023-04-27T08:24:52.604Z,25.33
2023-04-27T08:25:52.628Z,25.47
2023-04-27T08:26:52.588Z,25.45
2023-04-27T08:27:52.648Z,25.47
2023-04-27T08:28:52.595Z,25.41
2023-04-27T08:29:52.603Z,25.39
2023-04-27T08:30:52.651Z,25.48
2023-04-27T08:31:54.983Z,25.42
2023-04-27T08:32:52.796Z,25.49
2023-04-27T08:33:52.590Z,25.54
2023-04-27T08:34:52.609Z,25.44
2023-04-27T08:35:52.631Z,25.52
2023-04-27T08:36:52.636Z,25.49
2023-04-27T08:37:52.656Z,25.52
2023-04-27T08:38:52.638Z,25.59
2023-04-27T08:39:52.589Z,25.60
2023-04-27T08:40:52.562Z,25.57
2023-04-27T08:41:52.606Z,25.62
2023-04-27T08:42:52.566Z,25.56
2023-04-27T08:43:52.590Z,25.63
2023-04-27T08:44:52.582Z,25.59
2023-04-27T08:45:52.760Z,25.56
2023-04-27T08:46:52.651Z,25.71
2023-04-27T08:47:52.621Z,25.64
2023-04-27T08:48:52.638Z,25.69
2023-04-27T08:49:52.645Z,25.67
2023-04-27T08:50:52.607Z,25.66
2023-04-27T08:51:52.583Z,25.67
2023-04-27T08:52:52.670Z,25.71
2023-04-27T08:53:52.573Z,25.74
2023-04-27T08:54:52.693Z,25.74
2023-04-27T08:55:52.599Z,25.74
2023-04-27T08:56:52.631Z,25.74
2023-04-27T08:57:52.565Z,25.71
2023-04-27T08:58:52.595Z,25.76
2023-04-27T08:59:52.598Z,25.81
2023-04-27T09:00:52.723Z,25.75
2023-04-27T09:01:52.652Z,25.84
2023-04-27T09:02:52.869Z,25.75
2023-04-27T09:03:52.745Z,25.78
2023-04-27T09:04:52.658Z,25.88
2023-04-27T09:06:03.883Z,25.81
2023-04-27T09:10:50.071Z,25.89
2023-04-27T09:11:50.100Z,25.91
2023-04-27T09:12:50.318Z,25.88
2023-04-27T09:13:50.065Z,25.93
2023-04-27T09:14:50.039Z,25.94
2023-04-27T09:15:50.252Z,25.94
2023-04-27T09:16:50.156Z,25.94
2023-04-27T09:17:50.091Z,26.01
2023-04-27T09:18:50.057Z,25.97
2023-04-27T09:19:50.124Z,25.97
2023-04-27T09:20:50.043Z,25.99
2023-04-27T09:21:50.198Z,26.06
2023-04-27T09:22:50.218Z,26.12
2023-04-27T09:23:50.031Z,26.16
2023-04-27T09:24:50.056Z,26.15
2023-04-27T09:25:50.053Z,26.12
2023-04-27T09:26:50.104Z,26.12
2023-04-27T09:27:50.181Z,26.24
2023-04-27T09:28:50.180Z,26.31
2023-04-27T09:29:50.096Z,26.22
2023-04-27T09:30:50.075Z,26.23
2023-04-27T09:31:50.222Z,26.23
2023-04-27T09:32:50.077Z,26.24
2023-04-27T09:33:50.171Z,26.34
2023-04-27T09:34:50.108Z,26.34
2023-04-27T09:35:50.071Z,26.37
2023-04-27T09:36:50.122Z,26.42
2023-04-27T09:37:50.043Z,26.27
2023-04-27T09:38:50.046Z,26.41
2023-04-27T09:39:50.175Z,26.42
2023-04-27T09:40:50.315Z,26.38
2023-04-27T09:41:50.058Z,26.38
2023-04-27T09:42:50.044Z,26.42
2023-04-27T09:43:50.079Z,26.50
2023-04-27T09:44:50.146Z,26.52
2023-04-27T09:45:50.272Z,26.53
2023-04-27T09:46:50.073Z,26.52
2023-04-27T09:47:50.116Z,26.59
2023-04-27T09:48:50.101Z,26.54
2023-04-27T09:49:50.202Z,26.60
2023-04-27T09:50:50.158Z,26.59
2023-04-27T09:51:50.054Z,26.57
2023-04-27T09:52:50.076Z,26.63
2023-04-27T09:53:50.233Z,26.75
2023-04-27T09:54:50.052Z,26.71
2023-04-27T09:55:51.630Z,26.74
2023-04-27T09:56:50.084Z,26.75
2023-04-27T09:57:50.104Z,26.79
2023-04-27T09:58:50.504Z,26.84
2023-04-27T09:59:50.161Z,26.87
2023-04-27T10:00:50.148Z,26.91
2023-04-27T10:12:46.703Z,27.11
2023-04-27T10:13:46.757Z,27.18
2023-04-27T10:14:46.708Z,27.21
2023-04-27T10:15:49.236Z,27.24
2023-04-27T10:16:46.911Z,27.30
2023-04-27T10:17:46.766Z,27.27
2023-04-27T10:18:46.798Z,27.30
2023-04-27T10:19:46.685Z,27.28
2023-04-27T10:20:46.691Z,27.30
2023-04-27T10:21:47.249Z,27.28
2023-04-27T10:22:46.716Z,27.45
2023-04-27T10:23:46.714Z,27.48
2023-04-27T10:24:46.704Z,27.48
2023-04-27T10:25:46.665Z,27.43
2023-04-27T10:26:46.659Z,27.48
2023-04-27T10:27:46.654Z,27.49
2023-04-27T10:28:46.696Z,27.61
2023-04-27T10:29:47.409Z,27.71
2023-04-27T10:30:46.901Z,27.65
2023-04-27T10:31:46.743Z,27.62
2023-04-27T10:32:46.814Z,27.59
2023-04-27T10:33:46.760Z,27.53
2023-04-27T10:34:46.707Z,27.59
2023-04-27T10:35:46.705Z,27.61
2023-04-27T10:36:46.704Z,27.61
2023-04-27T10:37:46.694Z,27.71
2023-04-27T10:38:46.747Z,27.62
2023-04-27T10:39:49.202Z,27.55
2023-04-27T10:40:46.708Z,27.59
2023-04-27T10:41:46.702Z,27.52
2023-04-27T10:42:46.737Z,27.46
2023-04-27T10:43:46.693Z,27.49
2023-04-27T10:44:46.694Z,27.53
2023-04-27T10:46:46.771Z,27.42
2023-04-27T10:47:46.718Z,27.45
2023-04-27T10:48:46.702Z,27.38
2023-04-27T10:49:46.699Z,27.38
2023-04-27T10:50:46.732Z,27.33
2023-04-27T10:51:46.717Z,27.43
2023-04-27T10:52:46.756Z,27.41
2023-04-27T10:53:46.761Z,27.45
2023-04-27T10:54:46.707Z,27.41
2023-04-27T10:55:46.789Z,27.53
2023-04-27T10:56:46.758Z,27.49
2023-04-27T10:57:46.748Z,27.51
2023-04-27T10:58:49.232Z,27.51
2023-04-27T10:59:46.698Z,27.49
2023-04-27T11:00:46.735Z,27.48
2023-04-27T11:01:46.795Z,27.46
2023-04-27T11:02:46.805Z,27.62
2023-04-27T11:03:46.998Z,27.71
2023-04-27T11:04:46.808Z,27.57
2023-04-27T11:05:46.739Z,27.59
2023-04-27T11:06:47.060Z,27.71
2023-04-27T11:07:46.774Z,27.75
2023-04-27T11:08:46.738Z,27.69
2023-04-27T11:09:46.839Z,27.81
2023-04-27T11:10:46.730Z,27.84
2023-04-27T11:11:46.840Z,27.91
2023-04-27T11:12:46.757Z,27.96
2023-04-27T11:13:47.401Z,28.05
2023-04-27T11:14:46.803Z,28.01
2023-04-27T11:15:46.840Z,28.01
2023-04-27T11:16:47.076Z,28.02
2023-04-27T11:17:46.838Z,28.24
2023-04-27T11:18:46.798Z,28.30
2023-04-27T11:19:46.795Z,28.27
2023-04-27T11:20:46.796Z,28.36
2023-04-27T11:21:46.880Z,28.41
2023-04-27T11:22:46.781Z,28.41
2023-04-27T11:23:46.745Z,28.53
2023-04-27T11:24:46.808Z,28.58
2023-04-27T11:25:46.797Z,28.65
2023-04-27T11:26:46.828Z,28.73
2023-04-27T11:27:46.857Z,28.70
2023-04-27T11:28:46.772Z,28.70
2023-04-27T11:29:46.991Z,28.86
2023-04-27T11:30:46.763Z,28.82
2023-04-27T11:31:46.813Z,29.03
2023-04-27T11:32:46.868Z,28.94
2023-04-27T11:33:46.796Z,28.95
2023-04-27T11:34:46.857Z,29.06
2023-04-27T11:35:46.783Z,29.14
2023-04-27T11:36:46.834Z,29.20
2023-04-27T11:37:46.788Z,29.24
2023-04-27T11:38:46.902Z,29.36
2023-04-27T11:39:46.945Z,29.33
2023-04-27T11:40:46.850Z,29.40
2023-04-27T11:41:46.829Z,29.51
2023-04-27T11:42:46.804Z,29.50
2023-04-27T11:43:46.842Z,29.57
2023-04-27T11:44:46.818Z,29.69
2023-04-27T11:45:46.862Z,29.76
2023-04-27T11:46:46.883Z,29.82
2023-04-27T11:47:46.861Z,29.85
2023-04-27T11:48:47.103Z,29.92
2023-04-27T11:49:46.820Z,30.02
2023-04-27T11:50:46.885Z,30.09
2023-04-27T11:51:46.922Z,30.11
2023-04-27T11:52:46.851Z,30.16
2023-04-27T11:53:46.832Z,30.21
2023-04-27T11:54:46.857Z,30.34
2023-04-27T11:55:46.892Z,30.16
2023-04-27T11:56:46.844Z,30.19
2023-04-27T11:57:46.973Z,30.28
2023-04-27T11:58:46.856Z,30.37
2023-04-27T11:59:47.560Z,30.45
2023-04-27T12:00:47.074Z,30.54
2023-04-27T12:01:46.955Z,30.63
2023-04-27T12:02:47.004Z,30.71
2023-04-27T12:03:47.185Z,30.66
2023-04-27T12:04:48.005Z,30.89
2023-04-27T12:05:46.952Z,30.86
2023-04-27T12:06:46.955Z,30.88
2023-04-27T12:07:46.942Z,30.99
2023-04-27T12:08:47.080Z,31.13
2023-04-27T12:09:46.970Z,31.22
2023-04-27T12:10:47.168Z,31.28
2023-04-27T12:11:47.032Z,31.36
2023-04-27T12:12:46.960Z,31.44
2023-04-27T12:13:46.949Z,31.55
2023-04-27T12:14:46.966Z,31.68
2023-04-27T12:15:46.980Z,31.75
2023-04-27T12:16:47.046Z,31.81
2023-04-27T12:17:47.000Z,32.00
2023-04-27T12:18:47.069Z,32.00
2023-04-27T12:19:47.054Z,32.05
2023-04-27T12:20:47.012Z,32.19
2023-04-27T12:21:46.977Z,32.24
2023-04-27T12:23:46.982Z,32.47
2023-04-27T12:24:46.984Z,32.61
2023-04-27T12:25:46.985Z,32.62
2023-04-27T12:26:47.005Z,32.68
2023-04-27T12:27:46.998Z,32.87
2023-04-27T12:28:47.017Z,32.84
2023-04-27T12:29:47.136Z,32.99
2023-04-27T12:30:47.103Z,33.06
2023-04-27T12:31:47.058Z,33.09
2023-04-27T12:32:47.065Z,33.26
2023-04-27T12:33:47.030Z,33.31
2023-04-27T12:34:47.133Z,33.41
2023-04-27T12:35:47.036Z,33.47
2023-04-27T12:36:47.094Z,33.65
2023-04-27T12:37:47.052Z,33.62
2023-04-27T12:38:47.082Z,33.75
2023-04-27T12:39:47.066Z,33.80
2023-04-27T12:40:47.068Z,33.87
2023-04-27T12:41:47.069Z,33.80
2023-04-27T12:42:47.082Z,33.89
2023-04-27T12:43:47.088Z,33.99
2023-04-27T12:44:47.155Z,33.97
2023-04-27T12:45:47.097Z,34.06
2023-04-27T12:46:47.184Z,34.06
2023-04-27T12:48:01.786Z,34.18
2023-04-27T12:48:47.161Z,34.15
2023-04-27T12:49:47.142Z,34.11
2023-04-27T12:50:47.133Z,34.14
2023-04-27T12:51:47.175Z,34.14
2023-04-27T12:52:47.151Z,34.10
2023-04-27T12:53:47.138Z,34.17
2023-04-27T12:54:47.176Z,34.15
2023-04-27T12:55:47.160Z,34.17
2023-04-27T12:56:47.170Z,34.15
2023-04-27T12:57:47.172Z,34.11
2023-04-27T12:59:47.241Z,34.11
2023-04-27T13:00:47.325Z,34.24
2023-04-27T13:01:47.289Z,34.27
2023-04-27T13:02:47.348Z,34.18
2023-04-27T13:03:47.340Z,34.27
2023-04-27T13:04:47.365Z,34.26
2023-04-27T13:05:47.256Z,34.19
2023-04-27T13:06:47.251Z,34.24
2023-04-27T13:07:47.212Z,34.21
2023-04-27T13:08:47.278Z,34.26
2023-04-27T13:09:47.261Z,34.21
2023-04-27T13:10:47.233Z,34.24
2023-04-27T13:11:47.275Z,34.22
2023-04-27T13:12:47.253Z,34.22
2023-04-27T13:13:47.263Z,34.24
2023-04-27T13:14:47.254Z,34.19
2023-04-27T13:15:47.334Z,34.24
2023-04-27T13:16:47.284Z,34.22
2023-04-27T13:17:47.291Z,34.17
2023-04-27T13:18:47.314Z,34.14
2023-04-27T13:19:47.298Z,34.24
2023-04-27T13:20:47.346Z,34.12
2023-04-27T13:24:19.914Z,34.15
2023-04-27T13:25:19.892Z,34.18
2023-04-27T13:26:19.926Z,34.24
2023-04-27T13:27:42.018Z,34.18
2023-04-27T13:28:19.924Z,34.26
2023-04-27T13:29:19.918Z,34.21
2023-04-27T13:30:19.957Z,34.21
2023-04-27T13:31:19.950Z,34.26
2023-04-27T13:32:20.118Z,34.33
2023-04-27T13:33:23.367Z,34.26
2023-04-27T13:34:19.918Z,34.33
2023-04-27T13:35:19.949Z,34.29
2023-04-27T13:36:19.952Z,34.29
2023-04-27T13:37:19.912Z,34.27
2023-04-27T13:38:19.970Z,34.30
2023-04-27T13:39:19.964Z,34.37
2023-04-27T13:40:19.964Z,34.26
2023-04-27T13:41:20.006Z,34.24
2023-04-27T13:42:19.976Z,34.22
2023-04-27T13:43:19.987Z,34.21
2023-04-27T13:44:20.114Z,34.26
2023-04-27T13:45:21.342Z,34.22
2023-04-27T13:46:20.039Z,34.14
2023-04-27T13:47:20.020Z,34.10
2023-04-27T13:48:20.124Z,34.10
2023-04-27T13:49:19.992Z,34.15
2023-04-27T13:50:20.212Z,34.11
2023-04-27T13:51:20.002Z,34.00
2023-04-27T13:52:19.997Z,33.89
2023-04-27T13:53:20.018Z,33.63
2023-04-27T13:54:20.009Z,33.52
2023-04-27T13:55:20.018Z,33.52
2023-04-27T13:56:20.042Z,33.58
2023-04-27T13:57:20.055Z,33.62
2023-04-27T13:58:20.051Z,33.61
2023-04-27T13:59:20.036Z,33.65
2023-04-27T14:00:20.100Z,33.77
2023-04-27T14:01:20.116Z,33.74
2023-04-27T14:02:20.103Z,33.73
2023-04-27T14:03:20.284Z,33.62
2023-04-27T14:04:20.262Z,33.59
2023-04-27T14:05:20.086Z,33.63
2023-04-27T14:06:20.100Z,33.58
2023-04-27T14:07:20.083Z,33.56
2023-04-27T14:08:20.094Z,33.61
2023-04-27T14:09:20.128Z,33.55
2023-04-27T14:10:20.155Z,33.52
2023-04-27T14:11:20.124Z,33.55
2023-04-27T14:12:20.143Z,33.44
2023-04-27T14:13:20.146Z,33.37
2023-04-27T14:14:20.115Z,33.26
2023-04-27T14:15:20.155Z,33.18
2023-04-27T14:16:20.163Z,33.08
2023-04-27T14:17:20.130Z,32.98
2023-04-27T14:18:20.251Z,33.02
2023-04-27T14:19:20.147Z,32.89
2023-04-27T14:20:20.190Z,32.87
2023-04-27T14:21:20.187Z,32.81
2023-04-27T14:22:20.176Z,32.75
2023-04-27T14:23:20.193Z,32.74
2023-04-27T14:24:20.172Z,32.79
2023-04-27T14:25:20.178Z,32.84
2023-04-27T14:26:20.199Z,32.83
2023-04-27T14:27:20.184Z,32.83
2023-04-27T14:28:20.218Z,32.87
2023-04-27T14:29:20.194Z,32.91
2023-04-27T14:30:20.206Z,32.87
2023-04-27T14:31:20.275Z,32.96
2023-04-27T14:32:20.312Z,32.96
2023-04-27T14:33:20.210Z,32.89
2023-04-27T14:34:21.673Z,32.86
2023-04-27T14:35:20.230Z,33.02
2023-04-27T14:36:20.236Z,33.02
2023-04-27T14:37:20.242Z,33.09
2023-04-27T14:38:20.291Z,33.02
2023-04-27T14:39:20.261Z,32.99
2023-04-27T14:40:20.258Z,33.02
2023-04-27T14:41:20.278Z,33.09
2023-04-27T14:42:20.246Z,33.09
2023-04-27T14:43:20.284Z,33.09
2023-04-27T14:44:20.329Z,33.13
2023-04-27T14:45:20.868Z,33.13
2023-04-27T14:46:21.392Z,33.20
2023-04-27T14:47:20.315Z,33.17
2023-04-27T14:48:20.317Z,33.11
2023-04-27T14:49:20.303Z,32.89
2023-04-27T14:50:20.342Z,32.79
2023-04-27T14:51:20.351Z,32.62
2023-04-27T14:52:20.337Z,32.42
2023-04-27T14:53:20.301Z,32.27
2023-04-27T14:54:20.328Z,32.03
2023-04-27T14:55:20.322Z,31.82
2023-04-27T14:56:20.339Z,31.72
2023-04-27T14:57:20.362Z,31.60
2023-04-27T14:58:20.350Z,31.44
2023-04-27T14:59:20.370Z,31.45
2023-04-27T15:00:20.360Z,31.52
2023-04-27T15:01:20.390Z,31.45
2023-04-27T15:02:20.434Z,31.53
2023-04-27T15:03:20.546Z,31.45
2023-04-27T15:04:20.426Z,31.53
2023-04-27T15:05:20.395Z,31.45
2023-04-27T15:06:20.386Z,31.37
2023-04-27T15:07:20.369Z,31.43
2023-04-27T15:08:20.364Z,31.38
2023-04-27T15:09:20.376Z,31.38
2023-04-27T15:10:20.405Z,31.23
2023-04-27T15:11:20.415Z,31.18
2023-04-27T15:12:20.377Z,31.08
2023-04-27T15:13:20.378Z,31.06
2023-04-27T15:14:20.389Z,30.93
2023-04-27T15:15:20.398Z,30.94
2023-04-27T15:16:20.563Z,30.93
2023-04-27T15:17:20.431Z,30.82
2023-04-27T15:18:21.367Z,30.70
2023-04-27T15:19:20.411Z,30.63
2023-04-27T15:20:20.436Z,30.49
2023-04-27T15:21:20.432Z,30.45
2023-04-27T15:22:20.413Z,30.35
2023-04-27T15:23:20.413Z,30.28
2023-04-27T15:24:20.424Z,30.22
2023-04-27T15:25:20.451Z,30.16
2023-04-27T15:26:20.447Z,30.04
2023-04-27T15:27:20.414Z,29.97
2023-04-27T15:28:20.420Z,29.89
2023-04-27T15:29:20.426Z,29.75
2023-04-27T15:30:20.464Z,29.61
2023-04-27T15:31:20.485Z,29.57
2023-04-27T15:32:20.457Z,29.52
2023-04-27T15:33:21.145Z,29.43
2023-04-27T15:34:20.437Z,29.38
2023-04-27T15:35:20.485Z,29.21
2023-04-27T15:36:20.441Z,29.18
2023-04-27T15:37:20.441Z,29.08
2023-04-27T15:38:20.480Z,28.94
2023-04-27T15:39:20.462Z,28.86
2023-04-27T15:40:20.487Z,28.80
2023-04-27T15:41:20.454Z,28.70
2023-04-27T15:42:20.451Z,28.67
2023-04-27T15:43:20.460Z,28.60
2023-04-27T15:44:20.463Z,28.53
2023-04-27T15:45:20.523Z,28.38
2023-04-27T15:46:20.492Z,28.26
2023-04-27T15:47:20.508Z,28.24
2023-04-27T15:48:20.515Z,28.17
2023-04-27T15:49:20.469Z,28.08
2023-04-27T15:50:20.521Z,28.06
2023-04-27T15:51:20.470Z,27.99
2023-04-27T15:52:20.469Z,27.89
2023-04-27T15:53:20.476Z,27.80
2023-04-27T15:54:20.486Z,27.71
2023-04-27T15:55:20.510Z,27.59
2023-04-27T15:56:20.473Z,27.59
2023-04-27T15:57:20.472Z,27.51
2023-04-27T15:58:20.506Z,27.53
2023-04-27T15:59:20.501Z,27.43
2023-04-27T16:00:20.487Z,27.31
2023-04-27T16:11:52.744Z,26.45
2023-04-27T16:12:52.711Z,26.38
2023-04-27T16:13:52.704Z,26.37
2023-04-27T16:14:52.694Z,26.32
2023-04-27T16:15:52.688Z,26.30
2023-04-27T16:16:52.703Z,26.23
2023-04-27T16:17:53.234Z,26.11
2023-04-27T16:18:52.701Z,26.03
2023-04-27T16:19:52.681Z,26.04
2023-04-27T16:20:52.673Z,25.96
2023-04-27T16:21:52.703Z,25.86
2023-04-27T16:22:52.697Z,25.84
2023-04-27T16:23:52.664Z,25.79
2023-04-27T16:24:52.671Z,25.74
2023-04-27T16:25:52.687Z,25.70
2023-04-27T16:26:52.688Z,25.63
2023-04-27T16:27:52.676Z,25.64
2023-04-27T16:28:52.677Z,25.52
2023-04-27T16:29:52.663Z,25.45
2023-04-27T16:30:52.662Z,25.41
2023-04-27T16:31:52.855Z,25.38
2023-04-27T16:32:52.698Z,25.34
2023-04-27T16:33:52.656Z,25.33
2023-04-27T16:34:52.676Z,25.27
2023-04-27T16:35:52.663Z,25.20
2023-04-27T16:36:52.677Z,25.15
2023-04-27T16:37:52.658Z,25.17
2023-04-27T16:38:52.665Z,25.15
2023-04-27T16:39:52.660Z,25.09
2023-04-27T16:40:52.735Z,25.04
2023-04-27T16:41:52.663Z,24.96
2023-04-27T16:42:52.641Z,25.00
2023-04-27T16:43:52.664Z,24.83
2023-04-27T16:44:52.664Z,24.83
2023-04-27T16:45:52.730Z,24.78
2023-04-27T16:46:52.686Z,24.71
2023-04-27T16:47:52.769Z,24.75
2023-04-27T16:48:52.708Z,24.63
2023-04-27T16:49:52.642Z,24.61
2023-04-27T16:50:54.731Z,24.56
2023-04-27T16:51:52.662Z,24.49
2023-04-27T16:52:52.665Z,24.45
2023-04-27T16:53:52.639Z,24.48
2023-04-27T16:54:52.653Z,24.44
2023-04-27T16:55:52.674Z,24.32
2023-04-27T16:56:53.891Z,24.37
2023-04-27T16:57:52.649Z,24.29
2023-04-27T16:58:52.655Z,24.26
2023-04-27T16:59:52.686Z,24.27
2023-04-27T17:00:52.636Z,24.21
2023-04-27T17:01:52.791Z,24.18
2023-04-27T17:02:52.739Z,24.18
2023-04-27T17:03:52.771Z,24.15
2023-04-27T17:04:52.696Z,24.14
2023-04-27T17:05:52.646Z,24.09
2023-04-27T17:06:52.624Z,24.08
2023-04-27T17:07:52.668Z,24.11
2023-04-27T17:08:52.614Z,24.02
2023-04-27T17:09:52.611Z,23.96
2023-04-27T17:10:52.624Z,23.97
2023-04-27T17:11:52.604Z,23.93
2023-04-27T17:12:52.627Z,23.90
2023-04-27T17:13:52.620Z,23.89
2023-04-27T17:14:52.620Z,23.77
2023-04-27T17:15:52.727Z,23.89
2023-04-27T17:16:52.625Z,23.78
2023-04-27T17:17:52.654Z,23.78
2023-04-27T17:18:52.600Z,23.70
2023-04-27T17:19:52.590Z,23.70
2023-04-27T17:20:52.642Z,23.72
2023-04-27T17:21:52.612Z,23.62
2023-04-27T17:22:52.595Z,23.60
2023-04-27T17:23:52.610Z,23.63
2023-04-27T17:24:52.587Z,23.63